Caner Karaloglu — TCUL5 — position and weather

sailwx.info

Track history (hours):
 
Tides and Currents Weather Stations Pressure Air Temp Water Temp Dewpoint Dewpoint Depression Visibility Wind Speed Wind Dir Waves Ship Positions

Caner Karaloglu

Last reported at 2014-Sep-05 06:33 UTC. Time now 2014-Oct-25 03:34 UTC.
Position N 40°42' E 029°27'.
Warning: this ship's position is 49 days out of date.

Length 70 m; draft 3.4 m.

Type: Tanker. MMSI: 271043140.

Date/timePositionNaut miles runAvg speedWind from/ knotsBaromVisibWave heightAir tempDewpointWater temp
2014-Sep-05 06:33N 40°42' E 029°27'4 4.4
2014-Sep-05 05:33N 40°43' E 029°22'1 1.0
2014-Sep-05 04:29N 40°42' E 029°21'0 0.0
2014-Sep-05 03:17N 40°42' E 029°21'0 0.0
2014-Sep-05 02:29N 40°42' E 029°21'0 0.0
2014-Sep-05 01:11N 40°42' E 029°21'0 0.0
2014-Sep-04 23:29N 40°42' E 029°21'0 0.0
2014-Sep-04 20:28N 40°42' E 029°21'0 0.0
2014-Sep-04 18:23N 40°42' E 029°21'0 0.0
2014-Sep-04 17:23N 40°42' E 029°21'0 0.0
2014-Sep-04 16:28N 40°42' E 029°21'0 0.1
2014-Sep-04 15:22N 40°42' E 029°22'0 0.1
2014-Sep-04 13:33N 40°42' E 029°21'7 7.1
2014-Sep-04 12:33N 40°42' E 029°12'8 8.3
2014-Sep-04 11:33N 40°41' E 029°01'8 7.7
2014-Sep-04 10:33N 40°39' E 028°51'  
2014-Sep-02 06:13N 40°55' E 028°51'7 9.6
2014-Sep-02 05:33N 40°59' E 028°58'11 9.3
2014-Sep-02 04:22N 41°09' E 029°04'  
2014-Aug-28 03:11N 40°60' E 028°60'4 6.9
2014-Aug-28 02:32N 40°56' E 028°57'3 0.2
2014-Aug-27 12:32N 40°57' E 028°53'7 7.0
2014-Aug-27 11:32N 40°51' E 028°48'  
Track history (hours):
 
Tides and Currents Weather Stations Pressure Air Temp Water Temp Dewpoint Dewpoint Depression Visibility Wind Speed Wind Dir Waves Ship Positions

Caner Karaloglu

Last reported at 2014-Sep-05 06:33 UTC. Time now 2014-Oct-25 03:34 UTC.
Position N 40°42' E 029°27'.
Warning: this ship's position is 49 days out of date.

Length 70 m; draft 3.4 m.

Type: Tanker. MMSI: 271043140.

Date/timePositionNaut miles runAvg speedWind from/ knotsBaromVisibWave heightAir tempDewpointWater temp
2014-Sep-05 06:33N 40°42' E 029°27'4 4.4
2014-Sep-05 05:33N 40°43' E 029°22'1 1.0
2014-Sep-05 04:29N 40°42' E 029°21'0 0.0
2014-Sep-05 03:17N 40°42' E 029°21'0 0.0
2014-Sep-05 02:29N 40°42' E 029°21'0 0.0
2014-Sep-05 01:11N 40°42' E 029°21'0 0.0
2014-Sep-04 23:29N 40°42' E 029°21'0 0.0
2014-Sep-04 20:28N 40°42' E 029°21'0 0.0
2014-Sep-04 18:23N 40°42' E 029°21'0 0.0
2014-Sep-04 17:23N 40°42' E 029°21'0 0.0
2014-Sep-04 16:28N 40°42' E 029°21'0 0.1
2014-Sep-04 15:22N 40°42' E 029°22'0 0.1
2014-Sep-04 13:33N 40°42' E 029°21'7 7.1
2014-Sep-04 12:33N 40°42' E 029°12'8 8.3
2014-Sep-04 11:33N 40°41' E 029°01'8 7.7
2014-Sep-04 10:33N 40°39' E 028°51'  
2014-Sep-02 06:13N 40°55' E 028°51'7 9.6
2014-Sep-02 05:33N 40°59' E 028°58'11 9.3
2014-Sep-02 04:22N 41°09' E 029°04'  
2014-Aug-28 03:11N 40°60' E 028°60'4 6.9
2014-Aug-28 02:32N 40°56' E 028°57'3 0.2
2014-Aug-27 12:32N 40°57' E 028°53'7 7.0
2014-Aug-27 11:32N 40°51' E 028°48'  

Dump ship's entire track history